createdAt,value
2023-01-25T00:04:24.647Z,103399.38
2023-01-25T00:09:40.031Z,103389.50
2023-01-25T00:14:55.682Z,103389.94
2023-01-25T00:20:10.567Z,103377.63
2023-01-25T00:25:25.638Z,103369.69
2023-01-25T00:30:40.700Z,103373.72
2023-01-25T00:35:55.627Z,103368.50
2023-01-25T00:41:10.642Z,103366.16
2023-01-25T00:46:25.636Z,103363.38
2023-01-25T00:51:40.659Z,103366.63
2023-01-25T00:56:55.703Z,103359.16
2023-01-25T01:02:10.621Z,103357.50
2023-01-25T01:07:26.662Z,103356.28
2023-01-25T01:12:42.011Z,103353.19
2023-01-25T01:17:57.679Z,103352.50
2023-01-25T01:23:12.640Z,103352.41
2023-01-25T01:28:27.602Z,103362.41
2023-01-25T01:33:43.005Z,103357.25
2023-01-25T01:38:58.923Z,103357.94
2023-01-25T01:44:14.619Z,103356.84
2023-01-25T01:49:34.696Z,103349.63
2023-01-25T01:54:56.598Z,103346.16
2023-01-25T02:00:11.666Z,103335.84
2023-01-25T02:05:26.703Z,103336.97
2023-01-25T02:10:41.582Z,103330.19
2023-01-25T02:15:56.503Z,103319.97
2023-01-25T02:21:11.961Z,103319.19
2023-01-25T02:26:27.604Z,103323.09
2023-01-25T02:31:42.755Z,103325.31
2023-01-25T02:36:57.627Z,103307.13
2023-01-25T02:42:12.624Z,103311.44
2023-01-25T02:47:27.633Z,103307.13
2023-01-25T02:52:43.608Z,103309.47
2023-01-25T02:57:58.654Z,103313.91
2023-01-25T03:03:15.921Z,103306.34
2023-01-25T03:08:31.464Z,103307.56
2023-01-25T03:13:47.035Z,103289.25
2023-01-25T03:19:03.631Z,103287.28
2023-01-25T03:24:19.704Z,103269.03
2023-01-25T03:29:34.670Z,103264.75
2023-01-25T03:34:54.618Z,103271.06
2023-01-25T03:40:10.605Z,103270.63
2023-01-25T03:45:31.673Z,103266.63
2023-01-25T03:50:47.615Z,103264.28
2023-01-25T03:56:02.631Z,103252.41
2023-01-25T04:01:18.667Z,103239.53
2023-01-25T04:06:34.629Z,103242.88
2023-01-25T04:11:50.047Z,103236.13
2023-01-25T04:17:05.395Z,103233.34
2023-01-25T04:22:28.668Z,103236.75
2023-01-25T04:27:44.419Z,103236.66
2023-01-25T04:32:59.718Z,103227.13
2023-01-25T04:38:14.659Z,103222.22
2023-01-25T04:43:32.957Z,103224.22
2023-01-25T04:48:51.676Z,103214.03
2023-01-25T04:54:07.689Z,103209.69
2023-01-25T04:59:22.403Z,103212.91
2023-01-25T05:04:37.598Z,103211.69
2023-01-25T05:09:52.634Z,103214.47
2023-01-25T05:15:08.958Z,103207.03
2023-01-25T05:20:24.991Z,103205.59
2023-01-25T05:25:41.618Z,103199.69
2023-01-25T05:31:00.681Z,103192.28
2023-01-25T05:36:16.623Z,103189.19
2023-01-25T05:41:31.632Z,103188.81
2023-01-25T05:46:46.649Z,103189.25
2023-01-25T05:52:01.655Z,103194.50
2023-01-25T05:57:16.683Z,103188.97
2023-01-25T06:02:31.798Z,103181.53
2023-01-25T06:07:46.631Z,103191.06
2023-01-25T06:13:04.884Z,103193.81
2023-01-25T06:18:21.669Z,103195.81
2023-01-25T06:24:05.713Z,103205.38
2023-01-25T06:29:20.750Z,103192.72
2023-01-25T06:34:35.903Z,103201.50
2023-01-25T06:39:58.705Z,103198.72
2023-01-25T06:45:14.014Z,103190.03
2023-01-25T06:50:29.652Z,103192.03
2023-01-25T06:55:44.676Z,103190.47
2023-01-25T07:00:59.702Z,103189.09
2023-01-25T07:06:14.650Z,103181.06
2023-01-25T07:11:29.403Z,103188.63
2023-01-25T07:16:44.680Z,103181.50
2023-01-25T07:21:59.381Z,103175.97
2023-01-25T07:27:14.997Z,103177.19
2023-01-25T07:32:30.696Z,103166.09
2023-01-25T07:37:45.657Z,103164.53
2023-01-25T07:43:00.671Z,103167.75
2023-01-25T07:48:17.983Z,103172.84
2023-01-25T07:53:33.671Z,103168.53
2023-01-25T07:58:48.684Z,103164.97
2023-01-25T08:04:03.691Z,103153.44
2023-01-25T08:09:18.665Z,103153.88
2023-01-25T08:14:33.651Z,103146.78
2023-01-25T08:19:49.016Z,103149.56
2023-01-25T08:25:04.461Z,103148.81
2023-01-25T08:30:19.648Z,103144.72
2023-01-25T08:35:34.659Z,103151.00
2023-01-25T08:40:49.660Z,103148.69
2023-01-25T08:46:04.990Z,103154.56
2023-01-25T08:51:20.662Z,103145.03
2023-01-25T08:56:36.041Z,103141.81
2023-01-25T09:01:51.662Z,103132.25
2023-01-25T09:07:06.961Z,103130.63
2023-01-25T09:12:22.761Z,103126.63
2023-01-25T09:17:37.636Z,103120.16
2023-01-25T09:22:52.989Z,103116.16
2023-01-25T09:28:09.020Z,103107.41
2023-01-25T09:33:25.436Z,103100.97
2023-01-25T09:38:40.735Z,103108.03
2023-01-25T09:43:56.780Z,103110.38
2023-01-25T09:49:12.564Z,103102.41
2023-01-25T09:54:28.519Z,103101.28
2023-01-25T09:59:44.659Z,103106.28
2023-01-25T10:04:59.999Z,103102.59
2023-01-25T10:10:15.731Z,103092.25
2023-01-25T10:15:32.041Z,103087.09
2023-01-25T10:20:47.989Z,103084.31
2023-01-25T10:26:03.720Z,103075.97
2023-01-25T10:31:19.157Z,103057.78
2023-01-25T10:36:36.744Z,103052.88
2023-01-25T10:41:52.677Z,103040.88
2023-01-25T10:47:07.945Z,103023.00
2023-01-25T10:52:23.696Z,103008.69
2023-01-25T10:57:38.723Z,103005.91
2023-01-25T11:02:53.506Z,103005.44
2023-01-25T11:08:08.668Z,102997.91
2023-01-25T11:13:23.702Z,102982.81
2023-01-25T11:18:38.718Z,102972.47
2023-01-25T11:23:53.701Z,102962.19
2023-01-25T11:29:08.712Z,102940.28
2023-01-25T11:34:23.664Z,102939.84
2023-01-25T11:39:38.714Z,102927.50
2023-01-25T11:44:53.776Z,102916.41
2023-01-25T11:50:09.160Z,102901.31
2023-01-25T11:55:24.679Z,102887.00
2023-01-25T12:00:39.585Z,102874.34
2023-01-25T12:05:54.662Z,102859.25
2023-01-25T12:11:09.722Z,102844.59
2023-01-25T12:16:24.466Z,102833.81
2023-01-25T12:21:40.020Z,102823.50
2023-01-25T12:26:55.992Z,102810.84
2023-01-25T12:32:11.675Z,102800.50
2023-01-25T12:37:26.733Z,102792.66
2023-01-25T12:42:41.713Z,102793.88
2023-01-25T12:47:56.437Z,102780.00
2023-01-25T12:53:11.741Z,102760.91
2023-01-25T12:58:37.330Z,102745.47
2023-01-25T13:03:52.728Z,102754.56
2023-01-25T13:09:07.809Z,102743.78
2023-01-25T13:14:22.721Z,102725.13
2023-01-25T13:19:38.915Z,102716.50
2023-01-25T13:24:54.671Z,102706.63
2023-01-25T13:30:10.052Z,102706.63
2023-01-25T13:35:26.041Z,102693.53
2023-01-25T13:40:41.673Z,102699.53
2023-01-25T13:45:56.730Z,102701.22
2023-01-25T13:51:12.039Z,102696.75
2023-01-25T13:56:27.674Z,102699.53
2023-01-25T14:01:42.741Z,102691.66
2023-01-25T14:06:58.054Z,102677.94
2023-01-25T14:12:13.650Z,102679.47
2023-01-25T14:17:28.683Z,102675.47
2023-01-25T14:22:43.683Z,102666.38
2023-01-25T14:27:59.047Z,102660.38
2023-01-25T14:33:14.657Z,102656.03
2023-01-25T14:38:29.507Z,102651.72
2023-01-25T14:43:44.883Z,102650.97
2023-01-25T14:49:00.636Z,102652.19
2023-01-25T14:54:15.676Z,102654.22
2023-01-25T14:59:30.677Z,102654.97
2023-01-25T15:04:45.689Z,102653.41
2023-01-25T15:10:00.705Z,102654.22
2023-01-25T15:15:15.726Z,102653.84
2023-01-25T15:20:30.525Z,102640.47
2023-01-25T15:25:45.712Z,102636.16
2023-01-25T15:31:00.765Z,102629.84
2023-01-25T15:36:15.698Z,102628.59
2023-01-25T15:41:30.667Z,102617.50
2023-01-25T15:46:45.735Z,102614.72
2023-01-25T15:52:00.735Z,102608.88
2023-01-25T15:57:15.717Z,102591.59
2023-01-25T16:02:31.075Z,102582.03
2023-01-25T16:07:46.704Z,102595.13
2023-01-25T16:13:01.688Z,102607.47
2023-01-25T16:18:16.744Z,102615.50
2023-01-25T16:23:31.679Z,102618.25
2023-01-25T16:28:46.689Z,102611.94
2023-01-25T16:34:02.079Z,102628.59
2023-01-25T16:39:16.705Z,102617.91
2023-01-25T16:44:31.674Z,102614.09
2023-01-25T16:49:46.704Z,102607.00
2023-01-25T16:55:01.507Z,102607.31
2023-01-25T17:00:16.412Z,102594.66
2023-01-25T17:05:34.086Z,102595.59
2023-01-25T17:10:49.720Z,102585.25
2023-01-25T17:16:04.760Z,102581.75
2023-01-25T17:21:19.724Z,102551.66
2023-01-25T17:26:35.033Z,102535.47
2023-01-25T17:31:51.208Z,102524.09
2023-01-25T17:37:06.698Z,102525.31
2023-01-25T17:42:22.068Z,102506.81
2023-01-25T17:47:38.213Z,102476.00
2023-01-25T17:52:54.089Z,102462.91
2023-01-25T17:58:09.731Z,102449.69
2023-01-25T18:03:24.777Z,102427.03
2023-01-25T18:08:40.067Z,102417.19
2023-01-25T18:13:55.759Z,102414.41
2023-01-25T18:19:10.695Z,102409.13
2023-01-25T18:24:26.475Z,102394.53
2023-01-25T18:29:42.027Z,102398.53
2023-01-25T18:34:57.680Z,102415.16
2023-01-25T18:40:13.691Z,102397.00
2023-01-25T18:45:28.694Z,102381.59
2023-01-25T18:50:43.735Z,102386.34
2023-01-25T18:55:58.699Z,102378.03
2023-01-25T19:01:13.679Z,102376.03
2023-01-25T19:06:29.115Z,102375.25
2023-01-25T19:11:44.440Z,102365.41
2023-01-25T19:16:59.711Z,102360.63
2023-01-25T19:22:14.491Z,102366.94
2023-01-25T19:27:29.728Z,102357.09
2023-01-25T19:32:45.023Z,102355.84
2023-01-25T19:38:01.054Z,102357.09
2023-01-25T19:43:16.743Z,102352.31
2023-01-25T19:48:31.478Z,102340.00
2023-01-25T19:53:46.779Z,102336.13
2023-01-25T19:59:01.777Z,102318.41
2023-01-25T20:04:16.491Z,102308.88
2023-01-25T20:09:31.748Z,102308.09
2023-01-25T20:14:46.890Z,102310.09
2023-01-25T20:20:02.091Z,102296.25
2023-01-25T20:25:18.079Z,102301.03
2023-01-25T20:30:33.702Z,102302.09
2023-01-25T20:35:48.762Z,102295.94
2023-01-25T20:41:04.174Z,102291.94
2023-01-25T20:46:20.138Z,102288.66
2023-01-25T20:51:35.742Z,102273.56
2023-01-25T20:56:51.038Z,102269.59
2023-01-25T21:02:06.815Z,102257.53
2023-01-25T21:07:22.096Z,102272.03
2023-01-25T21:12:38.078Z,102270.00
2023-01-25T21:17:53.499Z,102258.47
2023-01-25T21:23:08.745Z,102259.22
2023-01-25T21:28:24.022Z,102251.19
2023-01-25T21:33:40.006Z,102245.94
2023-01-25T21:38:56.015Z,102245.47
2023-01-25T21:44:11.739Z,102242.69
2023-01-25T21:49:27.071Z,102251.59
2023-01-25T21:54:42.705Z,102247.59
2023-01-25T21:59:57.714Z,102245.16
2023-01-25T22:05:12.743Z,102247.16
2023-01-25T22:10:28.024Z,102248.38
2023-01-25T22:15:44.033Z,102238.06
2023-01-25T22:20:59.736Z,102238.06
2023-01-25T22:26:15.025Z,102235.28
2023-01-25T22:31:30.771Z,102222.19
2023-01-25T22:36:45.790Z,102218.66
2023-01-25T22:42:00.770Z,102215.88
2023-01-25T22:47:15.695Z,102209.53
2023-01-25T22:52:30.756Z,102208.00
2023-01-25T22:57:45.750Z,102207.56
2023-01-25T23:03:00.707Z,102203.34
2023-01-25T23:08:16.092Z,102196.56
2023-01-25T23:13:31.511Z,102193.31
2023-01-25T23:18:46.759Z,102182.22
2023-01-25T23:24:01.824Z,102177.44
2023-01-25T23:29:17.016Z,102173.91
2023-01-25T23:34:32.738Z,102177.16
2023-01-25T23:39:47.729Z,102175.31
2023-01-25T23:45:02.686Z,102170.69
2023-01-25T23:50:17.721Z,102161.34
2023-01-25T23:55:33.048Z,102145.94
